Time;durP1;ratioP1;P1;durP2;ratioP2;P2;SDS_P1;SDS_P2;PMS_P1;PMS_P2;Temp;Humidity;BMP_temperature;BMP_pressure;BME280_temperature;BME280_humidity;BME280_pressure;Samples;Min_cycle;Max_cycle;Signal;HPM_P1;HPM_P2
2022/11/29 00:02:06;;;;;;;35.83;17.87;;;;;;;0.96;100.00;100866.63;4996809;28;20224;-70
2022/11/29 00:04:33;;;;;;;34.00;17.73;;;;;;;0.96;100.00;100869.19;4995964;28;20785;-69
2022/11/29 00:06:59;;;;;;;32.37;17.63;;;;;;;0.96;100.00;100869.19;4996844;28;20792;-71
2022/11/29 00:09:26;;;;;;;32.37;16.97;;;;;;;0.98;100.00;100869.22;4995666;28;20266;-70
2022/11/29 00:12:12;;;;;;;32.90;17.30;;;;;;;0.95;100.00;100870.06;4995800;28;20284;-71
2022/11/29 00:14:40;;;;;;;36.17;18.27;;;;;;;0.94;100.00;100869.16;4994563;28;20273;-70
2022/11/29 00:17:07;;;;;;;30.30;16.47;;;;;;;0.95;100.00;100870.06;4991858;28;20236;-71
2022/11/29 00:19:34;;;;;;;35.67;18.63;;;;;;;0.96;100.00;100863.19;4993078;28;20199;-70
2022/11/29 00:22:02;;;;;;;34.87;17.30;;;;;;;0.97;100.00;100870.03;4995235;28;20248;-71
2022/11/29 00:24:30;;;;;;;31.50;16.47;;;;;;;0.97;100.00;100872.63;4989509;28;20227;-71
2022/11/29 00:26:58;;;;;;;35.10;18.50;;;;;;;0.99;100.00;100865.81;4997497;28;20208;-71
2022/11/29 00:29:25;;;;;;;37.43;18.57;;;;;;;0.98;100.00;100867.50;4990784;28;20205;-71
2022/11/29 00:31:51;;;;;;;36.13;18.70;;;;;;;0.98;100.00;100871.78;4994860;28;20201;-69
2022/11/29 00:34:18;;;;;;;33.57;18.47;;;;;;;0.99;100.00;100870.97;4991239;28;20561;-71
2022/11/29 00:36:44;;;;;;;37.07;17.10;;;;;;;0.99;100.00;100868.41;4996464;28;20208;-69
2022/11/29 00:39:11;;;;;;;33.30;17.60;;;;;;;1.02;100.00;100874.44;4997555;28;20261;-71
2022/11/29 00:41:38;;;;;;;37.97;17.83;;;;;;;0.99;100.00;100861.56;4994877;28;20204;-70
2022/11/29 00:44:06;;;;;;;32.63;17.83;;;;;;;1.02;100.00;100863.28;4994773;28;20597;-71
2022/11/29 00:46:33;;;;;;;31.37;16.70;;;;;;;1.03;100.00;100865.03;4993527;28;20538;-71
2022/11/29 00:48:59;;;;;;;35.47;18.97;;;;;;;1.03;100.00;100867.59;4992823;28;20247;-70
2022/11/29 00:51:25;;;;;;;35.03;17.83;;;;;;;1.04;100.00;100861.59;4992811;28;20208;-70
2022/11/29 00:53:52;;;;;;;35.73;19.43;;;;;;;1.04;100.00;100854.78;4993788;28;20220;-70
2022/11/29 00:56:18;;;;;;;30.80;16.43;;;;;;;1.05;100.00;100855.66;4992146;28;20210;-71
2022/11/29 00:58:47;;;;;;;33.27;17.60;;;;;;;1.06;100.00;100858.25;4995932;28;20538;-69
2022/11/29 01:01:15;;;;;;;32.33;17.70;;;;;;;1.08;100.00;100858.28;4995037;28;20659;-71
2022/11/29 01:03:41;;;;;;;34.93;17.87;;;;;;;1.08;100.00;100856.56;4990564;28;20547;-70
2022/11/29 01:06:11;;;;;;;38.23;17.57;;;;;;;1.10;100.00;100851.44;4989296;28;20289;-70
2022/11/29 01:08:38;;;;;;;34.20;16.67;;;;;;;1.10;100.00;100854.88;4995137;28;20277;-71
2022/11/29 01:11:07;;;;;;;34.27;17.73;;;;;;;1.14;100.00;100860.91;4990264;28;20216;-69
2022/11/29 01:13:34;;;;;;;35.00;18.00;;;;;;;1.15;100.00;100854.09;4990532;28;20252;-71
2022/11/29 01:16:01;;;;;;;26.83;15.83;;;;;;;1.15;100.00;100848.97;4989519;28;20212;-70
2022/11/29 01:18:30;;;;;;;31.20;15.23;;;;;;;1.14;100.00;100850.66;4995085;28;20692;-71
2022/11/29 01:20:58;;;;;;;31.77;17.33;;;;;;;1.17;100.00;100852.41;4994270;28;20196;-71
2022/11/29 01:23:24;;;;;;;37.10;17.70;;;;;;;1.17;100.00;100853.28;4995213;28;20209;-71
2022/11/29 01:25:59;;;;;;;28.40;15.47;;;;;;;1.19;100.00;100858.44;4993009;28;20211;-70
2022/11/29 01:28:26;;;;;;;35.73;17.30;;;;;;;1.17;100.00;100857.56;4989470;28;20276;-70
2022/11/29 01:30:52;;;;;;;30.97;16.53;;;;;;;1.18;100.00;100866.97;4989639;28;20198;-70
2022/11/29 01:33:19;;;;;;;32.37;17.27;;;;;;;1.19;100.00;100861.00;4988966;28;20227;-71
2022/11/29 01:35:51;;;;;;;30.57;17.30;;;;;;;1.18;100.00;100861.84;4995775;28;20209;-70
2022/11/29 01:38:18;;;;;;;33.00;16.60;;;;;;;1.17;100.00;100860.97;4996201;28;20193;-71
2022/11/29 01:40:45;;;;;;;34.37;17.67;;;;;;;1.19;100.00;100861.88;4993867;28;20209;-69
2022/11/29 01:43:16;;;;;;;32.00;17.17;;;;;;;1.20;100.00;100861.03;4992009;28;20237;-70
2022/11/29 01:45:44;;;;;;;31.57;16.77;;;;;;;1.21;100.00;100864.47;4993841;28;20201;-70
2022/11/29 01:48:12;;;;;;;35.13;17.00;;;;;;;1.21;100.00;100862.75;4993067;28;20213;-70
2022/11/29 01:50:40;;;;;;;33.80;16.87;;;;;;;1.22;100.00;100859.34;4996022;28;20257;-70
2022/11/29 01:53:11;;;;;;;32.33;17.10;;;;;;;1.22;100.00;100861.91;4992615;28;20224;-70
2022/11/29 01:55:40;;;;;;;37.07;16.47;;;;;;;1.23;100.00;100866.22;4994769;28;20291;-70
2022/11/29 01:58:07;;;;;;;34.80;16.90;;;;;;;1.23;100.00;100860.19;4993743;28;20201;-70
2022/11/29 02:00:34;;;;;;;31.57;16.47;;;;;;;1.24;100.00;100859.38;4992661;28;20197;-71
2022/11/29 02:03:05;;;;;;;36.40;17.60;;;;;;;1.23;100.00;100853.38;4992477;28;20251;-70
2022/11/29 02:05:33;;;;;;;30.00;16.17;;;;;;;1.24;100.00;100859.38;4990609;28;20433;-70
2022/11/29 02:08:01;;;;;;;36.90;16.67;;;;;;;1.22;100.00;100846.50;4994441;28;20208;-71
2022/11/29 02:10:40;;;;;;;29.40;16.53;;;;;;;1.23;100.00;100853.38;4992821;28;20229;-71
2022/11/29 02:13:17;;;;;;;28.70;16.47;;;;;;;1.24;100.00;100860.22;4993224;28;20221;-71
2022/11/29 02:15:50;;;;;;;32.43;16.47;;;;;;;1.24;100.00;100855.09;4991565;28;20205;-70
2022/11/29 02:18:24;;;;;;;30.70;16.77;;;;;;;1.25;100.00;100849.13;4986969;28;20212;-70
2022/11/29 02:21:09;;;;;;;31.40;16.27;;;;;;;1.25;100.00;100853.38;4992322;28;20566;-71
2022/11/29 02:24:29;;;;;;;36.53;17.80;;;;;;;1.25;100.00;100853.38;4993476;28;20224;-70
2022/11/29 02:27:35;;;;;;;31.43;16.20;;;;;;;1.25;100.00;100861.97;4988322;28;20197;-70
2022/11/29 02:30:13;;;;;;;33.80;16.33;;;;;;;1.25;100.00;100854.28;5003391;28;20762;-70
2022/11/29 02:33:00;;;;;;;27.60;15.57;;;;;;;1.26;100.00;100861.13;4994485;28;20464;-71
2022/11/29 02:35:42;;;;;;;30.40;16.10;;;;;;;1.27;100.00;100860.28;4993475;28;20201;-71
2022/11/29 02:38:33;;;;;;;31.17;15.90;;;;;;;1.26;100.00;100863.69;4988203;28;20208;-69
2022/11/29 02:41:14;;;;;;;29.60;15.53;;;;;;;1.27;100.00;100869.72;4994735;28;20207;-69
2022/11/29 02:44:02;;;;;;;28.37;15.57;;;;;;;1.27;100.00;100875.72;4994967;28;20227;-70
2022/11/29 02:46:49;;;;;;;36.40;16.00;;;;;;;1.26;100.00;100873.09;4998863;28;20228;-70
2022/11/29 02:49:31;;;;;;;31.17;15.70;;;;;;;1.26;100.00;100871.38;4998174;28;20215;-70
2022/11/29 02:52:01;;;;;;;33.83;17.17;;;;;;;1.27;100.00;100872.28;4996681;28;20211;-70
2022/11/29 02:54:35;;;;;;;31.33;15.80;;;;;;;1.27;100.00;100873.13;4998291;28;20207;-71
2022/11/29 02:57:11;;;;;;;28.87;15.73;;;;;;;1.26;100.00;100881.66;4998028;28;20585;-70
2022/11/29 02:59:45;;;;;;;28.57;14.93;;;;;;;1.24;100.00;100875.66;4999646;28;20593;-70
2022/11/29 03:02:20;;;;;;;29.43;15.53;;;;;;;1.24;100.00;100867.09;4997924;28;20601;-70
2022/11/29 03:04:53;;;;;;;31.83;14.93;;;;;;;1.25;100.00;100876.50;4995438;28;20224;-70
2022/11/29 03:07:30;;;;;;;27.83;15.17;;;;;;;1.23;100.00;100871.38;4994519;28;20576;-70
2022/11/29 03:10:03;;;;;;;27.00;14.67;;;;;;;1.25;100.00;100873.94;4993911;28;20200;-71
2022/11/29 03:12:38;;;;;;;30.53;15.93;;;;;;;1.25;100.00;100876.50;4998814;28;20309;-69
2022/11/29 03:15:19;;;;;;;29.73;15.07;;;;;;;1.27;100.00;100885.13;4992716;28;20197;-70
2022/11/29 03:17:56;;;;;;;29.33;14.87;;;;;;;1.27;100.00;100883.41;4995033;28;20241;-70
2022/11/29 03:20:33;;;;;;;35.00;17.90;;;;;;;1.28;100.00;100885.13;4994699;28;20557;-70
2022/11/29 03:23:09;;;;;;;33.27;16.43;;;;;;;1.29;100.00;100886.00;4986653;28;20742;-70
2022/11/29 03:25:39;;;;;;;30.53;17.23;;;;;;;1.28;100.00;100890.25;4993885;28;20200;-70
2022/11/29 03:28:13;;;;;;;41.47;20.23;;;;;;;1.30;100.00;100895.44;4998515;28;20588;-69
2022/11/29 03:30:44;;;;;;;26.13;15.37;;;;;;;1.31;100.00;100892.03;4997008;28;20196;-71
2022/11/29 03:33:17;;;;;;;29.60;15.57;;;;;;;1.32;100.00;100893.78;4992803;28;20222;-71
2022/11/29 03:35:53;;;;;;;35.90;20.03;;;;;;;1.31;100.00;100895.47;4994552;28;20201;-71
2022/11/29 03:38:26;;;;;;;32.30;16.63;;;;;;;1.32;100.00;100897.19;4993862;28;20637;-71
2022/11/29 03:41:01;;;;;;;32.87;15.90;;;;;;;1.33;100.00;100898.06;4995054;28;20687;-70
2022/11/29 03:43:36;;;;;;;32.03;16.07;;;;;;;1.33;100.00;100892.91;4996483;28;21014;-71
2022/11/29 03:46:09;;;;;;;29.60;15.10;;;;;;;1.33;100.00;100898.91;4995770;28;20231;-69
2022/11/29 03:48:39;;;;;;;27.23;14.37;;;;;;;1.36;100.00;100897.25;4995489;28;20215;-71
2022/11/29 03:51:13;;;;;;;32.07;16.07;;;;;;;1.35;100.00;100903.22;4996142;28;20215;-70
2022/11/29 03:53:47;;;;;;;30.70;15.57;;;;;;;1.34;100.00;100902.38;4994563;28;20221;-71
2022/11/29 03:56:28;;;;;;;29.20;15.10;;;;;;;1.36;100.00;100895.53;4997266;28;20204;-71
2022/11/29 03:59:03;;;;;;;26.07;14.17;;;;;;;1.38;100.00;100895.56;4990012;28;20204;-71
2022/11/29 04:01:50;;;;;;;31.37;15.87;;;;;;;1.38;100.00;100890.44;4998335;28;20579;-71
2022/11/29 04:04:47;;;;;;;29.33;15.40;;;;;;;1.39;100.00;100900.75;4991702;28;20216;-70
2022/11/29 04:07:32;;;;;;;27.30;16.27;;;;;;;1.41;100.00;100898.19;4994201;28;20589;-70
2022/11/29 04:10:16;;;;;;;30.03;15.33;;;;;;;1.43;100.00;100896.50;4988189;28;20200;-71
2022/11/29 04:13:27;;;;;;;28.93;13.70;;;;;;;1.44;100.00;100899.09;4995820;28;20228;-70
2022/11/29 04:16:13;;;;;;;30.57;16.03;;;;;;;1.46;100.00;100902.56;4998384;28;20600;-70
2022/11/29 04:19:25;;;;;;;30.20;16.03;;;;;;;1.48;100.00;100911.16;4989754;28;20205;-70
2022/11/29 04:22:27;;;;;;;28.07;14.77;;;;;;;1.50;100.00;100913.75;4992587;28;20561;-70
2022/11/29 04:25:16;;;;;;;29.00;14.90;;;;;;;1.50;100.00;100906.91;4990349;28;20220;-71
2022/11/29 04:28:09;;;;;;;26.97;14.70;;;;;;;1.54;100.00;100912.09;4991382;28;20207;-68
2022/11/29 04:30:47;;;;;;;26.33;14.43;;;;;;;1.55;100.00;100921.50;4993381;28;20660;-70
2022/11/29 04:33:45;;;;;;;25.43;13.80;;;;;;;1.54;100.00;100918.09;4991788;28;20252;-70
2022/11/29 04:36:52;;;;;;;28.00;14.53;;;;;;;1.57;100.00;100912.16;4991615;28;20227;-70
2022/11/29 04:39:46;;;;;;;27.73;14.13;;;;;;;1.55;100.00;100913.81;4995763;28;20224;-69
2022/11/29 04:42:14;;;;;;;29.03;14.93;;;;;;;1.56;100.00;100913.81;4996037;28;20255;-71
2022/11/29 04:44:52;;;;;;;35.97;15.50;;;;;;;1.57;100.00;100923.28;4955058;28;20620;-69
2022/11/29 04:47:40;;;;;;;30.97;14.80;;;;;;;1.57;100.00;100922.44;4960965;28;20198;-69
2022/11/29 04:50:17;;;;;;;27.37;13.77;;;;;;;1.57;100.00;100925.00;4958731;28;20298;-70
2022/11/29 04:53:03;;;;;;;25.90;13.93;;;;;;;1.57;100.00;100927.56;4968046;28;20225;-70
2022/11/29 04:55:42;;;;;;;29.00;16.33;;;;;;;1.55;100.00;100932.69;4955437;28;20206;-69
2022/11/29 04:58:19;;;;;;;30.67;16.90;;;;;;;1.56;100.00;100930.97;4954988;28;20942;-70
2022/11/29 05:00:54;;;;;;;25.97;14.13;;;;;;;1.56;100.00;100934.38;4955276;28;20204;-70
2022/11/29 05:03:33;;;;;;;28.33;13.90;;;;;;;1.56;100.00;100936.09;4949768;28;20217;-70
2022/11/29 05:06:07;;;;;;;25.47;12.73;;;;;;;1.56;100.00;100941.25;4954146;28;20194;-70
2022/11/29 05:08:45;;;;;;;23.33;13.13;;;;;;;1.57;100.00;100938.69;4956058;28;20216;-70
2022/11/29 05:11:19;;;;;;;24.80;13.13;;;;;;;1.56;100.00;100939.53;4953422;28;20213;-69
2022/11/29 05:13:52;;;;;;;26.83;13.80;;;;;;;1.56;100.00;100941.25;4955876;28;20232;-70
2022/11/29 05:16:37;;;;;;;24.50;13.83;;;;;;;1.57;100.00;100946.41;4953729;28;20573;-71
2022/11/29 05:19:20;;;;;;;24.53;13.73;;;;;;;1.59;100.00;100949.00;4952656;28;20281;-70
2022/11/29 05:21:52;;;;;;;26.40;14.43;;;;;;;1.59;100.00;100949.00;4953292;28;20221;-70
2022/11/29 05:24:36;;;;;;;27.03;14.27;;;;;;;1.59;100.00;100951.59;4953738;28;20234;-71
2022/11/29 05:27:14;;;;;;;28.03;14.47;;;;;;;1.60;100.00;100955.88;4954760;28;20578;-71
2022/11/29 05:29:45;;;;;;;26.77;14.57;;;;;;;1.61;100.00;100961.03;4951428;28;20509;-69
2022/11/29 05:32:27;;;;;;;24.97;12.57;;;;;;;1.61;100.00;100958.47;4957665;28;20221;-71
2022/11/29 05:35:27;;;;;;;32.00;14.80;;;;;;;1.62;100.00;100961.88;4951272;28;20225;-71
2022/11/29 05:37:56;;;;;;;26.37;14.07;;;;;;;1.64;100.00;100967.94;4960746;28;20210;-70
2022/11/29 05:40:40;;;;;;;24.50;13.77;;;;;;;1.64;100.00;100965.38;4951915;28;20268;-70
2022/11/29 05:43:17;;;;;;;29.10;14.63;;;;;;;1.65;100.00;100969.66;4955448;28;20253;-71
2022/11/29 05:45:50;;;;;;;32.57;14.97;;;;;;;1.63;100.00;100968.78;4938812;28;20235;-71
2022/11/29 05:48:24;;;;;;;27.80;14.57;;;;;;;1.65;100.00;100970.53;4955626;28;20202;-71
2022/11/29 05:50:58;;;;;;;25.73;14.70;;;;;;;1.66;100.00;100971.41;4946746;28;20684;-71
2022/11/29 05:53:28;;;;;;;29.90;15.63;;;;;;;1.65;100.00;100965.41;4954579;28;20232;-71
2022/11/29 05:56:04;;;;;;;29.60;14.53;;;;;;;1.66;100.00;100969.69;4954580;28;20202;-70
2022/11/29 05:58:47;;;;;;;29.47;15.87;;;;;;;1.67;100.00;100968.84;4955082;28;20285;-70
2022/11/29 06:01:21;;;;;;;29.83;14.93;;;;;;;1.67;100.00;100976.56;4952540;28;20637;-69
2022/11/29 06:03:56;;;;;;;26.67;14.80;;;;;;;1.69;100.00;100976.59;4949558;28;22557;-70
2022/11/29 06:06:30;;;;;;;30.93;15.13;;;;;;;1.68;100.00;100973.13;4952409;28;20213;-70
2022/11/29 06:09:04;;;;;;;28.63;15.10;;;;;;;1.70;100.00;100981.72;4949953;28;20599;-70
2022/11/29 06:11:35;;;;;;;28.30;15.07;;;;;;;1.68;100.00;100978.28;4952682;28;20206;-70
2022/11/29 06:14:08;;;;;;;29.77;15.37;;;;;;;1.73;100.00;100983.50;4948043;28;20219;-71
2022/11/29 06:16:57;;;;;;;30.27;15.87;;;;;;;1.74;100.00;100986.94;4958378;28;20213;-70
2022/11/29 06:19:42;;;;;;;32.07;15.17;;;;;;;1.73;100.00;100988.66;4950879;28;20211;-70
2022/11/29 06:22:23;;;;;;;31.53;16.07;;;;;;;1.76;100.00;100990.38;4951832;28;20244;-71
2022/11/29 06:25:10;;;;;;;29.40;14.70;;;;;;;1.76;100.00;100990.38;4949669;28;20673;-70
2022/11/29 06:27:56;;;;;;;27.93;14.53;;;;;;;1.78;100.00;100997.31;4958074;28;20210;-69
2022/11/29 06:30:29;;;;;;;27.33;14.40;;;;;;;1.79;100.00;100998.16;4952187;28;20210;-68
2022/11/29 06:33:07;;;;;;;28.10;14.70;;;;;;;1.81;100.00;101002.50;4952257;28;20695;-69
2022/11/29 06:35:44;;;;;;;24.97;14.57;;;;;;;1.82;100.00;101001.63;4949927;28;20202;-70
2022/11/29 06:38:17;;;;;;;33.67;15.17;;;;;;;1.83;100.00;101005.97;4953832;28;20208;-69
2022/11/29 06:40:44;;;;;;;28.00;13.87;;;;;;;1.86;100.00;101010.25;4960754;28;20210;-70
2022/11/29 06:43:11;;;;;;;26.03;14.43;;;;;;;1.85;100.00;101005.97;4957776;28;20235;-70
2022/11/29 06:45:48;;;;;;;29.00;15.10;;;;;;;1.88;100.00;101003.44;4959311;28;20310;-70
2022/11/29 06:48:21;;;;;;;29.30;14.57;;;;;;;1.88;100.00;101017.19;4957131;28;20210;-69
2022/11/29 06:50:56;;;;;;;26.60;14.50;;;;;;;1.89;100.00;101015.47;4959419;28;20198;-71
2022/11/29 06:53:34;;;;;;;29.20;14.87;;;;;;;1.92;100.00;101022.34;4957763;28;20232;-70
2022/11/29 06:56:07;;;;;;;27.07;13.30;;;;;;;1.92;100.00;101024.91;4955382;28;20224;-70
2022/11/29 06:58:44;;;;;;;31.17;14.70;;;;;;;1.92;100.00;101019.78;4955640;28;20210;-70
2022/11/29 07:01:22;;;;;;;26.70;15.80;;;;;;;1.94;100.00;101030.97;4954716;28;20216;-69
2022/11/29 07:04:04;;;;;;;28.83;14.23;;;;;;;1.96;100.00;101027.56;4952200;28;20676;-70
2022/11/29 07:06:34;;;;;;;26.80;13.70;;;;;;;1.95;100.00;101025.84;4957838;28;20733;-71
2022/11/29 07:09:03;;;;;;;27.53;14.47;;;;;;;1.97;100.00;101031.00;4957272;28;20220;-70
2022/11/29 07:11:31;;;;;;;30.80;14.73;;;;;;;1.99;100.00;101030.19;4957632;28;20206;-69
2022/11/29 07:13:57;;;;;;;25.60;13.03;;;;;;;2.00;100.00;101033.63;4950199;28;20227;-69
2022/11/29 07:16:28;;;;;;;27.37;14.30;;;;;;;2.00;100.00;101031.91;4954907;28;20216;-70
2022/11/29 07:19:07;;;;;;;25.63;13.93;;;;;;;2.02;100.00;101034.50;4947288;28;20203;-71
2022/11/29 07:21:45;;;;;;;28.43;13.97;;;;;;;2.03;100.00;101037.13;4953182;28;20206;-70
2022/11/29 07:24:23;;;;;;;27.23;14.43;;;;;;;2.04;100.00;101036.28;4947255;28;20661;-70
2022/11/29 07:26:59;;;;;;;29.53;16.33;;;;;;;2.07;100.00;101040.59;4953699;28;20206;-71
2022/11/29 07:29:34;;;;;;;27.37;14.33;;;;;;;2.10;100.00;101043.22;4950220;28;20205;-70
2022/11/29 07:32:11;;;;;;;28.67;14.93;;;;;;;2.12;100.00;101046.69;4953177;28;20210;-69
2022/11/29 07:34:48;;;;;;;26.47;14.47;;;;;;;2.15;100.00;101045.88;4957730;28;20213;-70
2022/11/29 07:37:23;;;;;;;27.10;14.60;;;;;;;2.16;100.00;101047.59;4956768;28;20763;-71
2022/11/29 07:39:58;;;;;;;32.07;16.30;;;;;;;2.18;100.00;101053.63;4960184;28;20562;-71
2022/11/29 07:42:31;;;;;;;31.23;14.43;;;;;;;2.20;100.00;101062.22;4957960;28;20786;-71
2022/11/29 07:45:05;;;;;;;28.73;15.00;;;;;;;2.20;100.00;101057.97;4958117;28;20366;-70
2022/11/29 07:47:33;;;;;;;32.53;15.13;;;;;;;2.23;100.00;101057.13;4960408;28;20205;-70
2022/11/29 07:49:59;;;;;;;27.57;13.50;;;;;;;2.25;100.00;101058.00;4960243;28;20199;-70
2022/11/29 07:52:26;;;;;;;27.57;14.30;;;;;;;2.28;100.00;101061.50;4957401;28;20237;-70
2022/11/29 07:54:52;;;;;;;32.30;15.33;;;;;;;2.31;100.00;101062.41;4958044;28;20603;-71
2022/11/29 07:57:19;;;;;;;23.97;14.70;;;;;;;2.32;100.00;101062.41;4956741;28;20582;-70
2022/11/29 07:59:45;;;;;;;33.20;15.00;;;;;;;2.35;100.00;101071.91;4957276;28;20495;-70
2022/11/29 08:02:13;;;;;;;32.23;15.67;;;;;;;2.38;100.00;101067.66;4957965;28;20208;-69
2022/11/29 08:04:44;;;;;;;26.47;13.50;;;;;;;2.40;100.00;101070.25;4957067;28;20678;-71
2022/11/29 08:07:10;;;;;;;28.63;15.00;;;;;;;2.42;100.00;101074.56;4957366;28;20211;-71
2022/11/29 08:09:36;;;;;;;31.30;14.70;;;;;;;2.45;100.00;101066.03;4954851;28;20317;-71
2022/11/29 08:12:03;;;;;;;28.73;14.23;;;;;;;2.49;100.00;101074.69;4959023;28;20214;-69
2022/11/29 08:14:31;;;;;;;31.97;15.53;;;;;;;2.50;100.00;101074.69;4955026;28;20209;-70
2022/11/29 08:16:57;;;;;;;32.83;14.50;;;;;;;2.51;100.00;101072.97;4955751;28;20202;-70
2022/11/29 08:19:24;;;;;;;30.30;14.73;;;;;;;2.54;100.00;101079.03;4957085;28;20686;-70
2022/11/29 08:21:51;;;;;;;27.77;15.07;;;;;;;2.57;100.00;101084.22;4956957;28;20230;-71
2022/11/29 08:24:18;;;;;;;25.50;13.63;;;;;;;2.58;100.00;101082.50;4950304;28;20228;-70
2022/11/29 08:26:44;;;;;;;24.93;13.10;;;;;;;2.62;100.00;101081.69;4948253;28;20327;-69
2022/11/29 08:29:11;;;;;;;30.77;14.90;;;;;;;2.64;100.00;101086.03;4953419;28;20259;-70
2022/11/29 08:31:37;;;;;;;29.47;15.83;;;;;;;2.66;100.00;101080.91;4956787;28;20453;-71
2022/11/29 08:34:05;;;;;;;28.60;14.50;;;;;;;2.70;100.00;101081.81;4953824;28;20232;-70
2022/11/29 08:36:31;;;;;;;29.50;14.07;;;;;;;2.72;100.00;101083.56;4953640;28;20499;-71
2022/11/29 08:39:01;;;;;;;29.40;14.30;;;;;;;2.77;100.00;101087.06;4950095;28;20210;-71
2022/11/29 08:41:28;;;;;;;29.37;14.47;;;;;;;2.79;100.00;101092.25;4958067;28;20761;-70
2022/11/29 08:43:55;;;;;;;25.07;13.57;;;;;;;2.80;100.00;101076.81;4950284;28;20234;-70
2022/11/29 08:47:34;;;;;;;31.07;14.40;;;;;;;2.82;100.00;101089.72;4956797;28;20228;-71
2022/11/29 08:49:09;;;;;;;27.00;14.73;;;;;;;2.88;100.00;101083.78;4952911;28;20210;-70
2022/11/29 08:51:35;;;;;;;25.87;13.77;;;;;;;2.90;100.00;101089.81;4957044;28;20207;-70
2022/11/29 08:54:02;;;;;;;27.70;14.83;;;;;;;2.93;100.00;101092.44;4954638;28;20225;-71
2022/11/29 08:56:28;;;;;;;30.87;15.53;;;;;;;2.96;100.00;101090.75;4957204;28;20211;-70
2022/11/29 08:58:55;;;;;;;29.03;15.87;;;;;;;2.98;100.00;101083.03;4941242;28;20206;-71
2022/11/29 09:01:21;;;;;;;29.40;17.30;;;;;;;3.00;100.00;101089.94;4955567;28;20206;-71
2022/11/29 09:04:01;;;;;;;29.10;15.43;;;;;;;3.05;100.00;101095.16;4955181;28;20218;-70
2022/11/29 09:06:29;;;;;;;32.00;15.87;;;;;;;3.07;100.00;101097.75;4953972;28;20502;-70
2022/11/29 09:08:56;;;;;;;27.70;14.30;;;;;;;3.13;100.00;101101.28;4947465;28;20210;-70
2022/11/29 09:11:26;;;;;;;26.47;14.57;;;;;;;3.15;100.00;101103.84;4954551;28;20535;-71
2022/11/29 09:13:55;;;;;;;27.80;14.87;;;;;;;3.19;100.00;101110.78;4955855;28;20219;-70
2022/11/29 09:16:24;;;;;;;28.07;15.23;;;;;;;3.22;100.00;101109.09;4953401;28;20202;-70
2022/11/29 09:18:54;;;;;;;31.47;18.07;;;;;;;3.25;100.00;101110.84;4949584;28;20206;-70
2022/11/29 09:21:22;;;;;;;38.00;23.33;;;;;;;3.29;100.00;101109.16;4952128;28;20215;-70
2022/11/29 09:23:49;;;;;;;31.47;16.03;;;;;;;3.31;100.00;101110.94;4948376;28;20228;-69
2022/11/29 09:26:18;;;;;;;26.90;14.23;;;;;;;3.34;100.00;101112.66;4951315;28;20616;-71
2022/11/29 09:28:46;;;;;;;25.33;14.07;;;;;;;3.39;100.00;101113.59;4955233;28;20267;-70
2022/11/29 09:31:15;;;;;;;30.17;15.10;;;;;;;3.40;100.00;101113.59;4957461;28;20259;-71
2022/11/29 09:33:42;;;;;;;27.43;14.57;;;;;;;3.43;100.00;101112.78;4958008;28;20619;-70
2022/11/29 09:36:10;;;;;;;33.80;17.53;;;;;;;3.49;100.00;101115.41;4950294;28;20597;-69
2022/11/29 09:38:38;;;;;;;36.20;21.73;;;;;;;3.52;100.00;101112.03;4955058;28;20210;-70
2022/11/29 09:41:15;;;;;;;24.30;13.77;;;;;;;3.51;100.00;101113.72;4951038;28;20195;-70
2022/11/29 09:43:51;;;;;;;27.87;14.97;;;;;;;3.54;100.00;101120.63;4955966;28;20233;-69
2022/11/29 09:46:31;;;;;;;26.33;14.67;;;;;;;3.56;100.00;101117.22;4954672;28;20214;-71
2022/11/29 09:49:11;;;;;;;23.07;13.07;;;;;;;3.59;100.00;101122.41;4952375;28;20194;-69
2022/11/29 09:51:52;;;;;;;28.70;14.97;;;;;;;3.63;100.00;101120.72;4956683;28;20206;-70
2022/11/29 09:54:30;;;;;;;25.33;13.43;;;;;;;3.64;100.00;101122.47;4962046;28;20253;-70
2022/11/29 09:56:57;;;;;;;24.53;13.00;;;;;;;3.65;100.00;101116.44;4956804;28;20258;-71
2022/11/29 09:59:28;;;;;;;23.70;13.13;;;;;;;3.69;100.00;101117.34;4958592;28;20310;-71
2022/11/29 10:02:02;;;;;;;26.77;13.30;;;;;;;3.75;100.00;101120.84;4958817;28;20583;-70
2022/11/29 10:04:33;;;;;;;26.97;13.53;;;;;;;3.77;100.00;101128.59;4956809;28;20602;-70
2022/11/29 10:07:06;;;;;;;25.30;13.43;;;;;;;3.74;100.00;101121.69;4959857;28;20248;-71
2022/11/29 10:09:40;;;;;;;22.77;13.37;;;;;;;3.77;100.00;101120.88;4959454;28;20203;-69
2022/11/29 10:12:15;;;;;;;27.10;12.90;;;;;;;3.81;100.00;101112.28;4956092;28;20210;-70
2022/11/29 10:14:48;;;;;;;24.23;13.17;;;;;;;3.82;100.00;101121.78;4957397;28;20419;-69
2022/11/29 10:17:26;;;;;;;24.97;13.10;;;;;;;3.87;100.00;101120.09;4952976;28;20229;-70
2022/11/29 10:19:59;;;;;;;25.87;14.10;;;;;;;3.92;100.00;101126.19;4954392;28;20264;-70
2022/11/29 10:22:34;;;;;;;23.83;13.43;;;;;;;3.96;100.00;101125.34;4960037;28;20229;-69
2022/11/29 10:25:03;;;;;;;22.80;12.63;;;;;;;4.01;100.00;101122.81;4958045;28;20267;-70
2022/11/29 10:27:29;;;;;;;23.37;13.20;;;;;;;4.02;100.00;101128.84;4949411;28;20884;-71
2022/11/29 10:30:01;;;;;;;29.63;15.10;;;;;;;4.02;100.00;101124.53;4951260;28;20252;-70
2022/11/29 10:32:32;;;;;;;23.53;12.00;;;;;;;4.07;100.00;101124.56;4952102;28;20324;-71
2022/11/29 10:34:59;;;;;;;26.80;15.60;;;;;;;4.05;100.00;101127.13;4955739;28;20331;-69
2022/11/29 10:37:28;;;;;;;25.73;13.90;;;;;;;4.02;100.00;101132.28;4952628;28;20211;-71
2022/11/29 10:40:00;;;;;;;21.03;12.30;;;;;;;4.09;100.00;101135.78;4958376;28;21014;-70
2022/11/29 10:45:16;;;;;;;26.90;12.90;;;;;;;4.09;100.00;101128.88;4977389;28;20216;-70
2022/11/29 10:47:45;;;;;;;22.33;12.87;;;;;;;4.11;100.00;101128.91;4981196;28;20627;-70
2022/11/29 10:50:16;;;;;;;26.53;13.20;;;;;;;4.10;100.00;101128.03;4959182;28;20209;-68
2022/11/29 10:52:42;;;;;;;24.33;12.80;;;;;;;4.18;100.00;101133.25;4979421;28;20202;-69
2022/11/29 10:55:13;;;;;;;20.90;11.87;;;;;;;4.16;100.00;101138.41;5002064;28;20213;-70
2022/11/29 10:58:08;;;;;;;21.47;12.37;;;;;;;4.22;100.00;101139.31;4998307;28;20307;-69
2022/11/29 11:00:50;;;;;;;23.17;12.83;;;;;;;4.23;100.00;101135.88;4997551;28;20305;-70
2022/11/29 11:03:22;;;;;;;23.10;12.20;;;;;;;4.24;100.00;101127.28;4998393;28;20235;-71
2022/11/29 11:05:57;;;;;;;20.67;12.87;;;;;;;4.31;100.00;101136.78;4993920;28;20333;-69
2022/11/29 11:08:25;;;;;;;22.40;12.73;;;;;;;4.37;100.00;101134.28;4988625;28;20768;-71
2022/11/29 11:10:52;;;;;;;25.47;12.97;;;;;;;4.43;100.00;101136.03;4989196;28;20285;-71
2022/11/29 11:13:21;;;;;;;31.10;16.90;;;;;;;4.38;100.00;101132.56;4993529;28;20526;-70
2022/11/29 11:15:50;;;;;;;24.23;11.47;;;;;;;4.43;100.00;101130.88;4993542;28;20209;-71
2022/11/29 11:18:21;;;;;;;37.60;21.17;;;;;;;4.45;100.00;101130.03;4996716;28;20299;-71
2022/11/29 11:20:53;;;;;;;22.17;12.07;;;;;;;4.50;100.00;101136.09;4993542;28;20270;-70
2022/11/29 11:23:24;;;;;;;26.17;13.20;;;;;;;4.55;100.00;101136.13;4989488;28;20608;-70
2022/11/29 11:25:57;;;;;;;24.23;14.77;;;;;;;4.56;100.00;101135.28;4989404;28;20208;-70
2022/11/29 11:28:25;;;;;;;18.70;11.40;;;;;;;4.61;100.00;101137.88;4988418;28;20665;-70
2022/11/29 11:30:56;;;;;;;20.50;11.83;;;;;;;4.62;100.00;101137.88;4987872;28;20189;-70
2022/11/29 11:33:25;;;;;;;19.77;11.57;;;;;;;4.64;100.00;101149.09;5000577;28;20225;-70
2022/11/29 11:36:02;;;;;;;21.97;12.30;;;;;;;4.65;100.00;101144.81;4994482;28;20197;-70
2022/11/29 11:38:29;;;;;;;16.77;10.50;;;;;;;4.71;100.00;101148.31;4993953;28;20200;-71
2022/11/29 11:41:05;;;;;;;19.03;10.40;;;;;;;4.73;100.00;101144.00;4989605;28;20212;-70
2022/11/29 11:43:32;;;;;;;20.43;10.73;;;;;;;4.80;100.00;101144.03;4992410;28;20237;-70